Time;durP1;ratioP1;P1;durP2;ratioP2;P2;SDS_P1;SDS_P2;PMS_P1;PMS_P2;Temp;Humidity;BMP_temperature;BMP_pressure;BME280_temperature;BME280_humidity;BME280_pressure;Samples;Min_cycle;Max_cycle;Signal;HPM_P1;HPM_P2
2022/01/11 00:01:18;;;;;;;35.80;12.40;;;;;;;-141.50;100.00;63355.56;5069274;28;20064;-78
2022/01/11 00:03:45;;;;;;;34.50;12.93;;;;;;;-141.50;100.00;63355.56;5072215;28;20048;-78
2022/01/11 00:06:29;;;;;;;33.25;11.73;;;;;;;-141.50;100.00;63355.56;5071441;28;20508;-79
2022/01/11 00:09:00;;;;;;;34.60;11.93;;;;;;;-141.50;100.00;63355.56;5072132;28;20087;-79
2022/01/11 00:11:27;;;;;;;25.45;10.90;;;;;;;-141.50;100.00;63355.56;5071380;28;20117;-79
2022/01/11 00:13:54;;;;;;;27.02;10.25;;;;;;;-141.50;100.00;63355.56;5072184;28;20095;-78
2022/01/11 00:16:20;;;;;;;25.75;11.27;;;;;;;-141.50;100.00;63355.56;5070481;28;20044;-79
2022/01/11 00:18:47;;;;;;;26.38;9.48;;;;;;;-141.50;100.00;63355.56;5074224;28;20055;-79
2022/01/11 00:21:14;;;;;;;30.73;10.43;;;;;;;-141.50;100.00;63355.56;5071973;28;20049;-78
2022/01/11 00:26:07;;;;;;;26.10;10.32;;;;;;;-141.50;100.00;63355.56;5073573;28;20106;-80
2022/01/11 00:28:33;;;;;;;25.13;9.23;;;;;;;-141.50;100.00;63355.56;5073024;28;20049;-78
2022/01/11 00:31:02;;;;;;;25.90;10.55;;;;;;;-141.50;100.00;63355.56;5071849;28;20056;-77
2022/01/11 00:33:39;;;;;;;26.73;9.60;;;;;;;-141.50;100.00;63355.56;5075978;28;20052;-78
2022/01/11 00:36:07;;;;;;;28.17;9.75;;;;;;;-141.50;100.00;63355.56;5072720;28;20104;-79
2022/01/11 00:38:36;;;;;;;27.00;9.65;;;;;;;-141.50;100.00;63355.56;5072141;28;20060;-79
2022/01/11 00:41:05;;;;;;;27.33;11.23;;;;;;;-141.50;100.00;63355.56;5072306;28;20086;-79
2022/01/11 00:43:34;;;;;;;24.88;10.23;;;;;;;-141.50;100.00;63355.56;5073581;28;20052;-79
2022/01/11 00:46:01;;;;;;;28.92;11.05;;;;;;;-141.50;100.00;63355.56;5070394;28;20044;-78
2022/01/11 00:48:27;;;;;;;28.40;10.35;;;;;;;-141.50;100.00;63355.56;5072166;28;20056;-79
2022/01/11 00:50:56;;;;;;;34.60;11.77;;;;;;;-141.50;100.00;63355.56;5075539;28;20147;-79
2022/01/11 00:53:23;;;;;;;31.13;12.38;;;;;;;-141.50;100.00;63355.56;5071671;28;20056;-79
2022/01/11 00:55:50;;;;;;;30.02;12.25;;;;;;;-141.50;100.00;63355.56;5071058;28;20048;-78
2022/01/11 00:58:19;;;;;;;36.03;13.10;;;;;;;-141.50;100.00;63355.56;5071943;28;20117;-78
2022/01/11 01:00:46;;;;;;;29.45;12.63;;;;;;;-141.50;100.00;63355.56;5071618;28;20059;-79
2022/01/11 01:03:13;;;;;;;36.42;13.07;;;;;;;-141.50;100.00;63355.56;5069973;28;20135;-80
2022/01/11 01:05:40;;;;;;;34.90;12.93;;;;;;;-141.50;100.00;63355.56;5072687;28;20515;-79
2022/01/11 01:08:07;;;;;;;32.72;12.43;;;;;;;-141.50;100.00;63355.56;5075980;28;20302;-80
2022/01/11 01:10:39;;;;;;;31.15;13.00;;;;;;;-141.50;100.00;63355.56;5073141;28;20045;-79
2022/01/11 01:13:10;;;;;;;33.53;12.45;;;;;;;-141.50;100.00;63355.56;5074408;28;20079;-79
2022/01/11 01:15:37;;;;;;;41.25;13.13;;;;;;;-141.50;100.00;63355.56;5074283;28;20041;-79
2022/01/11 01:18:05;;;;;;;34.47;12.80;;;;;;;-141.50;100.00;63355.56;5075679;28;20056;-80
2022/01/11 01:20:33;;;;;;;31.55;12.82;;;;;;;-141.50;100.00;63355.56;5075542;28;20075;-80
2022/01/11 01:23:01;;;;;;;40.22;13.68;;;;;;;-141.50;100.00;63355.56;5073929;28;20063;-77
2022/01/11 01:25:28;;;;;;;35.45;13.02;;;;;;;-141.50;100.00;63355.56;5073853;28;20075;-79
2022/01/11 01:27:55;;;;;;;31.08;13.07;;;;;;;-141.50;100.00;63355.56;5072814;28;20052;-78
2022/01/11 01:30:22;;;;;;;36.03;14.10;;;;;;;-141.50;100.00;63355.56;5070514;28;20618;-77
2022/01/11 01:32:50;;;;;;;36.90;14.50;;;;;;;-141.50;100.00;63355.56;5071353;28;20048;-78
2022/01/11 01:35:18;;;;;;;35.38;13.98;;;;;;;-141.50;100.00;63355.56;5066522;28;20080;-79
2022/01/11 01:37:45;;;;;;;41.78;14.93;;;;;;;-141.50;100.00;63355.56;5049632;28;20041;-79
2022/01/11 01:40:13;;;;;;;35.72;14.25;;;;;;;-141.50;100.00;63355.56;5052269;28;20045;-79
2022/01/11 01:42:40;;;;;;;36.42;14.80;;;;;;;-141.50;100.00;63355.56;5055979;28;20081;-79
2022/01/11 01:45:07;;;;;;;42.60;15.60;;;;;;;-141.50;100.00;63355.56;5053333;28;20068;-79
2022/01/11 01:47:34;;;;;;;42.78;16.42;;;;;;;-141.50;100.00;63355.56;5053037;28;20048;-80
2022/01/11 01:50:02;;;;;;;44.72;16.35;;;;;;;-141.50;100.00;63355.56;5054655;28;20386;-78
2022/01/11 01:52:29;;;;;;;43.00;16.45;;;;;;;-141.50;100.00;63355.56;5054132;28;20460;-79
2022/01/11 01:54:56;;;;;;;48.33;17.23;;;;;;;-141.50;100.00;63355.56;5051283;28;20049;-78
2022/01/11 01:57:24;;;;;;;39.78;16.20;;;;;;;-141.50;100.00;63355.56;5050151;28;20099;-79
2022/01/11 01:59:51;;;;;;;54.67;16.02;;;;;;;-141.50;100.00;63355.56;5055639;28;20083;-79
2022/01/11 02:02:18;;;;;;;44.00;16.77;;;;;;;-141.50;100.00;63355.56;5051233;28;20060;-79
2022/01/11 02:04:47;;;;;;;43.47;16.30;;;;;;;-141.50;100.00;63355.56;5049705;28;20088;-77
2022/01/11 02:07:14;;;;;;;50.35;17.13;;;;;;;-141.50;100.00;63355.56;5048257;28;20102;-78
2022/01/11 02:09:40;;;;;;;48.97;16.55;;;;;;;-141.50;100.00;63355.56;5050254;28;20041;-79
2022/01/11 02:12:07;;;;;;;59.30;18.02;;;;;;;-141.50;100.00;63355.56;5049313;28;20056;-78
2022/01/11 02:14:34;;;;;;;59.15;19.67;;;;;;;-141.50;100.00;63355.56;5049132;28;20087;-79
2022/01/11 02:17:01;;;;;;;58.78;18.70;;;;;;;-141.50;100.00;63355.56;5048705;28;20072;-79
2022/01/11 02:19:27;;;;;;;58.75;19.05;;;;;;;-141.50;100.00;63355.56;5049926;28;20082;-78
2022/01/11 02:21:54;;;;;;;57.00;18.92;;;;;;;-141.50;100.00;63355.56;5050048;28;20057;-79
2022/01/11 02:24:20;;;;;;;57.78;20.05;;;;;;;-141.50;100.00;63355.56;5051726;28;20052;-78
2022/01/11 02:26:48;;;;;;;69.78;20.52;;;;;;;-141.50;100.00;63355.56;5049256;28;20114;-79
2022/01/11 02:29:16;;;;;;;64.60;20.52;;;;;;;-141.50;100.00;63355.56;5050958;28;20049;-79
2022/01/11 02:31:43;;;;;;;76.15;21.38;;;;;;;-141.50;100.00;63355.56;5049785;28;20048;-80
2022/01/11 02:34:09;;;;;;;71.35;20.20;;;;;;;-141.50;100.00;63355.56;5054684;28;20083;-79
2022/01/11 02:36:37;;;;;;;69.50;21.25;;;;;;;-141.50;100.00;63355.56;5066098;28;20033;-78
2022/01/11 02:39:04;;;;;;;82.72;21.65;;;;;;;-141.50;100.00;63355.56;5068672;28;20056;-79
2022/01/11 02:41:31;;;;;;;64.32;20.60;;;;;;;-141.50;100.00;63355.56;5054261;28;20049;-79
2022/01/11 02:43:59;;;;;;;68.15;21.92;;;;;;;-141.50;100.00;63355.56;5054196;28;20057;-79
2022/01/11 02:46:27;;;;;;;56.47;20.42;;;;;;;-141.50;100.00;63355.56;5050479;28;20405;-79
2022/01/11 02:48:55;;;;;;;66.28;22.15;;;;;;;-141.50;100.00;63355.56;5051881;28;20075;-78
2022/01/11 02:51:24;;;;;;;55.72;18.85;;;;;;;-141.50;100.00;63355.56;5052532;28;20045;-79
2022/01/11 02:53:53;;;;;;;62.10;21.35;;;;;;;-141.50;100.00;63355.56;5058219;28;20171;-78
2022/01/11 02:56:21;;;;;;;65.82;21.13;;;;;;;-141.50;100.00;63355.56;5057364;28;20640;-79
2022/01/11 02:58:48;;;;;;;64.38;21.40;;;;;;;-141.50;100.00;63355.56;5059580;28;20049;-79
2022/01/11 03:01:15;;;;;;;73.65;22.27;;;;;;;-141.50;100.00;63355.56;5056018;28;20049;-79
2022/01/11 03:03:42;;;;;;;67.30;22.55;;;;;;;-141.50;100.00;63355.56;5059520;28;20053;-79
2022/01/11 03:06:08;;;;;;;71.65;22.15;;;;;;;-141.50;100.00;63355.56;5056384;28;20060;-78
2022/01/11 03:08:42;;;;;;;74.32;23.27;;;;;;;-141.50;100.00;63355.56;5057245;28;20057;-79
2022/01/11 03:11:10;;;;;;;73.10;22.75;;;;;;;-141.50;100.00;63355.56;5060598;28;20455;-80
2022/01/11 03:13:39;;;;;;;71.45;22.13;;;;;;;-141.50;100.00;63355.56;5063702;28;20076;-79
2022/01/11 03:16:06;;;;;;;69.95;22.25;;;;;;;-141.50;100.00;63355.56;5050340;28;20049;-79
2022/01/11 03:18:33;;;;;;;67.10;22.92;;;;;;;-141.50;100.00;63355.56;5052195;28;20048;-79
2022/01/11 03:21:00;;;;;;;71.43;22.77;;;;;;;-141.50;100.00;63355.56;5051649;28;20060;-79
2022/01/11 03:23:26;;;;;;;67.45;22.98;;;;;;;-141.50;100.00;63355.56;5050708;28;20052;-79
2022/01/11 03:25:53;;;;;;;76.90;22.90;;;;;;;-141.50;100.00;63355.56;5048199;28;20056;-79
2022/01/11 03:28:21;;;;;;;72.88;23.65;;;;;;;-141.50;100.00;63355.56;5049741;28;20069;-79
2022/01/11 03:30:49;;;;;;;64.03;23.75;;;;;;;-141.50;100.00;63355.56;5049364;28;20126;-79
2022/01/11 03:33:19;;;;;;;67.40;22.88;;;;;;;-141.50;100.00;63355.56;5049946;28;20057;-79
2022/01/11 03:35:46;;;;;;;61.50;22.13;;;;;;;-141.50;100.00;63355.56;5050052;28;20053;-79
2022/01/11 03:38:15;;;;;;;64.95;21.23;;;;;;;-141.50;100.00;63355.56;5050604;28;20060;-79
2022/01/11 03:40:43;;;;;;;62.70;22.45;;;;;;;-141.50;100.00;63355.56;5051010;28;20048;-78
2022/01/11 03:43:10;;;;;;;64.30;22.40;;;;;;;-141.50;100.00;63355.56;5051685;28;20083;-80
2022/01/11 03:45:37;;;;;;;57.38;21.88;;;;;;;-141.50;100.00;63355.56;5048125;28;20107;-79
2022/01/11 03:48:06;;;;;;;67.63;23.10;;;;;;;-141.50;100.00;63355.56;5051056;28;20060;-79
2022/01/11 03:50:32;;;;;;;64.43;22.80;;;;;;;-141.50;100.00;63355.56;5052212;28;20049;-79
2022/01/11 03:53:13;;;;;;;75.05;22.77;;;;;;;-141.50;100.00;63355.56;5048662;28;20536;-78
2022/01/11 03:58:15;;;;;;;66.78;23.15;;;;;;;-141.50;100.00;63355.56;5052435;28;20072;-79
2022/01/11 04:00:42;;;;;;;75.03;25.50;;;;;;;-141.50;100.00;63355.56;5049041;28;20052;-79
2022/01/11 04:03:10;;;;;;;63.33;22.55;;;;;;;-141.50;100.00;63355.56;5047516;28;20081;-78
2022/01/11 04:05:37;;;;;;;65.68;22.05;;;;;;;-141.50;100.00;63355.56;5049532;28;20471;-79
2022/01/11 04:08:04;;;;;;;68.20;23.13;;;;;;;-141.50;100.00;63355.56;5051098;28;20052;-78
2022/01/11 04:10:31;;;;;;;64.00;22.73;;;;;;;-141.50;100.00;63355.56;5048747;28;20110;-79
2022/01/11 04:12:57;;;;;;;60.13;22.40;;;;;;;-141.50;100.00;63355.56;5051020;28;20382;-78
2022/01/11 04:15:24;;;;;;;62.30;21.83;;;;;;;-141.50;100.00;63355.56;5053402;28;20041;-76
2022/01/11 04:17:50;;;;;;;62.70;22.65;;;;;;;-141.50;100.00;63355.56;5053218;28;20164;-78
2022/01/11 04:20:19;;;;;;;66.38;23.38;;;;;;;-141.50;100.00;63355.56;5053360;28;20084;-78
2022/01/11 04:22:48;;;;;;;67.60;23.48;;;;;;;-141.50;100.00;63355.56;5051050;28;20080;-79
2022/01/11 04:25:16;;;;;;;75.93;25.20;;;;;;;-141.50;100.00;63355.56;5051233;28;20076;-79
2022/01/11 04:27:43;;;;;;;70.70;24.42;;;;;;;-141.50;100.00;63355.56;5052931;28;20062;-80
2022/01/11 04:30:10;;;;;;;66.68;25.95;;;;;;;-141.50;100.00;63355.56;5055758;28;20048;-79
2022/01/11 04:32:37;;;;;;;74.75;25.75;;;;;;;-141.50;100.00;63355.56;5050714;28;20056;-78
2022/01/11 04:35:04;;;;;;;79.47;27.42;;;;;;;-141.50;100.00;63355.56;5067119;28;20094;-79
2022/01/11 04:37:30;;;;;;;86.97;29.65;;;;;;;-141.50;100.00;63355.56;5069230;28;20079;-77
2022/01/11 04:39:57;;;;;;;77.10;28.33;;;;;;;-141.50;100.00;63355.56;5070764;28;20094;-79
2022/01/11 04:42:23;;;;;;;72.50;27.10;;;;;;;-141.50;100.00;63355.56;5069595;28;20468;-78
2022/01/11 04:44:50;;;;;;;72.85;27.35;;;;;;;-141.50;100.00;63355.56;5071084;28;20495;-77
2022/01/11 04:47:17;;;;;;;69.75;23.98;;;;;;;-141.50;100.00;63355.56;5068279;28;20047;-78
2022/01/11 04:49:43;;;;;;;69.35;24.45;;;;;;;-141.50;100.00;63355.56;5073620;28;20052;-79
2022/01/11 04:52:10;;;;;;;71.32;26.35;;;;;;;-141.50;100.00;63355.56;5070687;28;20128;-78
2022/01/11 04:54:36;;;;;;;67.60;24.50;;;;;;;-141.50;100.00;63355.56;5073415;28;20080;-78
2022/01/11 04:57:04;;;;;;;66.72;24.75;;;;;;;-141.50;100.00;63355.56;5076464;28;20555;-79
2022/01/11 04:59:30;;;;;;;74.60;25.67;;;;;;;-141.50;100.00;63355.56;5076169;28;20118;-79
2022/01/11 05:01:57;;;;;;;69.03;24.45;;;;;;;-141.50;100.00;63355.56;5054262;28;20044;-79
2022/01/11 05:04:24;;;;;;;63.05;24.92;;;;;;;-141.50;100.00;63355.56;5084323;28;20131;-78
2022/01/11 05:06:50;;;;;;;69.85;25.45;;;;;;;-141.50;100.00;63355.56;5092688;28;20142;-76
2022/01/11 05:09:17;;;;;;;70.75;26.23;;;;;;;-141.50;100.00;63355.56;5093082;28;20051;-78
2022/01/11 05:11:43;;;;;;;70.70;26.08;;;;;;;-141.50;100.00;63355.56;5089129;28;20048;-78
2022/01/11 05:14:10;;;;;;;72.85;26.23;;;;;;;-141.50;100.00;63355.56;5092871;28;20105;-79
2022/01/11 05:16:36;;;;;;;66.10;24.52;;;;;;;-141.50;100.00;63355.56;5090877;28;20476;-77
2022/01/11 05:19:06;;;;;;;67.18;25.35;;;;;;;-141.50;100.00;63355.56;5082108;28;20071;-78
2022/01/11 05:21:33;;;;;;;73.07;26.33;;;;;;;-141.50;100.00;63355.56;5070130;28;20117;-77
2022/01/11 05:23:59;;;;;;;81.57;27.70;;;;;;;-141.50;100.00;63355.56;5068984;28;20492;-77
2022/01/11 05:26:26;;;;;;;79.35;28.33;;;;;;;-141.50;100.00;63355.56;5068928;28;20052;-78
2022/01/11 05:28:52;;;;;;;77.70;28.42;;;;;;;-141.50;100.00;63355.56;5071558;28;20052;-79
2022/01/11 05:31:19;;;;;;;83.35;29.45;;;;;;;-141.50;100.00;63355.56;5071657;28;20057;-78
2022/01/11 05:33:45;;;;;;;87.65;28.88;;;;;;;-141.50;100.00;63355.56;5073584;28;20052;-78
2022/01/11 05:36:12;;;;;;;87.72;29.88;;;;;;;-141.50;100.00;63355.56;5073015;28;20061;-78
2022/01/11 05:38:38;;;;;;;88.60;31.52;;;;;;;-141.50;100.00;63355.56;5073623;28;20060;-77
2022/01/11 05:41:06;;;;;;;99.82;32.08;;;;;;;-141.50;100.00;63355.56;5073522;28;20472;-78
2022/01/11 05:43:32;;;;;;;105.70;34.75;;;;;;;-141.50;100.00;63355.56;5072827;28;20048;-78
2022/01/11 05:45:59;;;;;;;105.13;34.72;;;;;;;-141.50;100.00;63355.56;5073491;28;20048;-78
2022/01/11 05:48:26;;;;;;;105.82;35.88;;;;;;;-141.50;100.00;63355.56;5088398;28;20048;-79
2022/01/11 05:50:52;;;;;;;109.28;36.80;;;;;;;-141.50;100.00;63355.56;5083865;28;20074;-77
2022/01/11 05:53:19;;;;;;;112.65;36.83;;;;;;;-141.50;100.00;63355.56;5059547;28;20147;-78
2022/01/11 05:55:46;;;;;;;102.30;36.30;;;;;;;-141.50;100.00;63355.56;5058903;28;20052;-78
2022/01/11 05:58:12;;;;;;;119.28;38.55;;;;;;;-141.50;100.00;63355.56;5053530;28;20111;-78
2022/01/11 06:00:39;;;;;;;111.70;37.28;;;;;;;-141.50;100.00;63355.56;5068604;28;20060;-78
2022/01/11 06:03:06;;;;;;;95.97;34.08;;;;;;;-141.50;100.00;63355.56;5067850;28;20113;-78
2022/01/11 06:05:37;;;;;;;105.38;33.17;;;;;;;-141.50;100.00;63355.56;5069615;28;20090;-78
2022/01/11 06:08:05;;;;;;;102.57;36.20;;;;;;;-141.50;100.00;63355.56;5072018;28;20053;-78
2022/01/11 06:10:32;;;;;;;105.00;36.58;;;;;;;-141.50;100.00;63355.56;5069435;28;20313;-78
2022/01/11 06:12:58;;;;;;;111.55;35.80;;;;;;;-141.50;100.00;63355.56;5070062;28;20052;-78
2022/01/11 06:15:26;;;;;;;108.32;37.10;;;;;;;-141.50;100.00;63355.56;5068413;28;20044;-77
2022/01/11 06:17:53;;;;;;;95.80;33.65;;;;;;;-141.50;100.00;63355.56;5069213;28;20068;-78
2022/01/11 06:20:19;;;;;;;100.32;34.55;;;;;;;-141.50;100.00;63355.56;5048386;28;20052;-78
2022/01/11 06:22:46;;;;;;;103.80;36.35;;;;;;;-141.50;100.00;63355.56;5047723;28;20048;-78
2022/01/11 06:25:12;;;;;;;114.10;36.70;;;;;;;-141.50;100.00;63355.56;5047251;28;20087;-77
2022/01/11 06:27:40;;;;;;;109.57;37.88;;;;;;;-141.50;100.00;63355.56;5048452;28;20048;-77
2022/01/11 06:30:14;;;;;;;107.72;35.70;;;;;;;-141.50;100.00;63355.56;5048206;28;20297;-77
2022/01/11 06:32:43;;;;;;;108.97;37.10;;;;;;;-141.50;100.00;63355.56;5046937;28;20060;-77
2022/01/11 06:35:12;;;;;;;114.57;36.50;;;;;;;-141.50;100.00;63355.56;5049470;28;20045;-78
2022/01/11 06:37:39;;;;;;;104.38;34.72;;;;;;;-141.50;100.00;63355.56;5048594;28;20148;-78
2022/01/11 06:40:07;;;;;;;102.10;33.78;;;;;;;-141.50;100.00;63355.56;5049023;28;20060;-77
2022/01/11 06:42:34;;;;;;;98.78;33.30;;;;;;;-141.50;100.00;63355.56;5050191;28;20049;-77
2022/01/11 06:45:00;;;;;;;100.20;34.85;;;;;;;-141.50;100.00;63355.56;5050455;28;20049;-77
2022/01/11 06:47:27;;;;;;;105.75;34.45;;;;;;;-141.50;100.00;63355.56;5049148;28;20560;-78
2022/01/11 06:49:54;;;;;;;106.70;35.90;;;;;;;-141.50;100.00;63355.56;5050576;28;20048;-77
2022/01/11 06:52:21;;;;;;;98.20;35.80;;;;;;;-141.50;100.00;63355.56;5047567;28;20052;-76
2022/01/11 06:54:47;;;;;;;91.45;33.85;;;;;;;-141.50;100.00;63355.56;5049266;28;20492;-78
2022/01/11 06:57:14;;;;;;;113.18;36.85;;;;;;;-141.50;100.00;63355.56;5048764;28;20079;-77
2022/01/11 06:59:40;;;;;;;98.95;35.15;;;;;;;-141.50;100.00;63355.56;5048018;28;20555;-78
2022/01/11 07:02:07;;;;;;;99.65;33.08;;;;;;;-141.50;100.00;63355.56;5047516;28;20053;-78
2022/01/11 07:04:34;;;;;;;109.55;36.63;;;;;;;-141.50;100.00;63355.56;5049337;28;20077;-79
2022/01/11 07:07:01;;;;;;;122.72;36.90;;;;;;;-141.50;100.00;63355.56;5047269;28;20072;-78
2022/01/11 07:09:27;;;;;;;117.63;36.80;;;;;;;-141.50;100.00;63355.56;5048473;28;20088;-78
2022/01/11 07:11:54;;;;;;;118.93;38.05;;;;;;;-141.50;100.00;63355.56;5049464;28;20352;-78
2022/01/11 07:14:20;;;;;;;113.18;36.85;;;;;;;-141.50;100.00;63355.56;5048675;28;20053;-78
2022/01/11 07:16:48;;;;;;;109.28;38.03;;;;;;;-141.50;100.00;63355.56;5047980;28;20103;-78
2022/01/11 07:19:16;;;;;;;114.88;37.72;;;;;;;-141.50;100.00;63355.56;5049241;28;20317;-78
2022/01/11 07:21:46;;;;;;;119.45;37.60;;;;;;;-141.50;100.00;63355.56;5048635;28;20106;-79
2022/01/11 07:24:16;;;;;;;114.30;36.88;;;;;;;-141.50;100.00;63355.56;5048608;28;20485;-79
2022/01/11 07:26:43;;;;;;;113.82;37.10;;;;;;;-141.50;100.00;63355.56;5050051;28;20073;-79
2022/01/11 07:29:10;;;;;;;105.60;35.13;;;;;;;-141.50;100.00;63355.56;5049484;28;20045;-80
2022/01/11 07:31:38;;;;;;;97.28;34.10;;;;;;;-141.50;100.00;63355.56;5048951;28;20049;-78
2022/01/11 07:34:06;;;;;;;100.55;34.80;;;;;;;-141.50;100.00;63355.56;5049955;28;20139;-78
2022/01/11 07:36:33;;;;;;;102.18;37.05;;;;;;;-141.50;100.00;63355.56;5048036;28;20049;-78
2022/01/11 07:39:00;;;;;;;104.45;34.47;;;;;;;-141.50;100.00;63355.56;5049896;28;20126;-78
2022/01/11 07:41:26;;;;;;;107.60;36.85;;;;;;;-141.50;100.00;63355.56;5049513;28;20460;-78
2022/01/11 07:43:53;;;;;;;108.57;36.63;;;;;;;-141.50;100.00;63355.56;5050672;28;20095;-79
2022/01/11 07:46:19;;;;;;;98.20;36.60;;;;;;;-141.50;100.00;63355.56;5048733;28;20200;-78
2022/01/11 07:48:46;;;;;;;98.43;34.80;;;;;;;-141.50;100.00;63355.56;5052398;28;20459;-78
2022/01/11 07:51:13;;;;;;;105.38;36.33;;;;;;;-141.50;100.00;63355.56;5053612;28;20493;-79
2022/01/11 07:53:39;;;;;;;103.07;34.25;;;;;;;-141.50;100.00;63355.56;5054427;28;20102;-77
2022/01/11 07:56:06;;;;;;;98.32;35.88;;;;;;;-141.50;100.00;63355.56;5053773;28;20067;-78
2022/01/11 07:58:34;;;;;;;86.25;32.78;;;;;;;-141.50;100.00;63355.56;5053438;28;20045;-79
2022/01/11 08:01:00;;;;;;;95.03;34.85;;;;;;;-141.50;100.00;63355.56;5053926;28;20521;-79
2022/01/11 08:03:27;;;;;;;92.82;32.90;;;;;;;-141.50;100.00;63355.56;5051812;28;20077;-78
2022/01/11 08:05:54;;;;;;;100.65;31.98;;;;;;;-141.50;100.00;63355.56;5052358;28;20055;-78
2022/01/11 08:08:20;;;;;;;93.85;32.90;;;;;;;-141.50;100.00;63355.56;5052498;28;20052;-77
2022/01/11 08:10:47;;;;;;;106.55;34.90;;;;;;;-141.50;100.00;63355.56;5052600;28;20360;-77
2022/01/11 08:13:13;;;;;;;108.38;36.30;;;;;;;-141.50;100.00;63355.56;5053216;28;20053;-77
2022/01/11 08:15:40;;;;;;;110.68;36.75;;;;;;;-141.50;100.00;63355.56;5052209;28;20568;-78
2022/01/11 08:18:08;;;;;;;104.57;35.70;;;;;;;-141.50;100.00;63355.56;5052624;28;20106;-76
2022/01/11 08:20:35;;;;;;;102.97;36.13;;;;;;;-141.50;100.00;63355.56;5053112;28;20500;-78
2022/01/11 08:23:01;;;;;;;107.03;36.42;;;;;;;-141.50;100.00;63355.56;5053145;28;20126;-78
2022/01/11 08:25:29;;;;;;;103.03;36.75;;;;;;;-141.50;100.00;63355.56;5050324;28;20053;-75
2022/01/11 08:27:56;;;;;;;113.93;36.97;;;;;;;-141.50;100.00;63355.56;5053478;28;20041;-78
2022/01/11 08:30:23;;;;;;;102.10;35.72;;;;;;;-141.50;100.00;63355.56;5051834;28;20049;-76
2022/01/11 08:32:49;;;;;;;106.15;36.75;;;;;;;-141.50;100.00;63355.56;5053117;28;20577;-78
2022/01/11 08:35:16;;;;;;;103.88;36.10;;;;;;;-141.50;100.00;63355.56;5052626;28;20049;-78
2022/01/11 08:37:42;;;;;;;109.88;36.22;;;;;;;-141.50;100.00;63355.56;5052427;28;20045;-78
2022/01/11 08:40:10;;;;;;;104.40;35.72;;;;;;;-141.50;100.00;63355.56;5050927;28;20115;-77
2022/01/11 08:42:37;;;;;;;114.40;36.47;;;;;;;-141.50;100.00;63355.56;5050653;28;20099;-78
2022/01/11 08:45:05;;;;;;;101.30;33.67;;;;;;;-141.50;100.00;63355.56;5051995;28;20079;-80
2022/01/11 08:47:32;;;;;;;95.68;33.00;;;;;;;-141.50;100.00;63355.56;5051257;28;20045;-78
2022/01/11 08:50:02;;;;;;;95.80;32.10;;;;;;;-141.50;100.00;63355.56;5052206;28;20409;-78
2022/01/11 08:52:29;;;;;;;100.03;33.20;;;;;;;-141.50;100.00;63355.56;5051460;28;20472;-76
2022/01/11 08:54:56;;;;;;;96.05;30.88;;;;;;;-141.50;100.00;63355.56;5051516;28;20115;-78
2022/01/11 08:57:23;;;;;;;94.32;32.88;;;;;;;-141.50;100.00;63355.56;5053798;28;20041;-79
2022/01/11 08:59:49;;;;;;;107.15;33.72;;;;;;;-141.50;100.00;63355.56;5065955;28;20087;-77
2022/01/11 09:02:16;;;;;;;99.18;32.58;;;;;;;-141.50;100.00;63355.56;5071736;28;20048;-78
2022/01/11 09:04:43;;;;;;;89.68;31.83;;;;;;;-141.50;100.00;63355.56;5061829;28;20103;-77
2022/01/11 09:07:10;;;;;;;94.72;32.78;;;;;;;-141.50;100.00;63355.56;5051646;28;20048;-78
2022/01/11 09:09:37;;;;;;;93.88;32.50;;;;;;;-141.50;100.00;63355.56;5053138;28;20451;-79
2022/01/11 09:12:06;;;;;;;87.88;31.45;;;;;;;-141.50;100.00;63355.56;5053320;28;20103;-79
2022/01/11 09:14:34;;;;;;;86.85;30.67;;;;;;;-141.50;100.00;63355.56;5058923;28;20049;-79
2022/01/11 09:17:03;;;;;;;77.25;30.02;;;;;;;-141.50;100.00;63355.56;5066882;28;20059;-79
2022/01/11 09:19:34;;;;;;;74.78;27.48;;;;;;;-141.50;100.00;63355.56;5068457;28;20051;-78
2022/01/11 09:22:01;;;;;;;67.03;25.63;;;;;;;-141.50;100.00;63355.56;5068572;28;20049;-77
2022/01/11 09:24:34;;;;;;;66.75;25.70;;;;;;;-141.50;100.00;63355.56;5053662;28;20052;-78
2022/01/11 09:27:04;;;;;;;69.43;27.08;;;;;;;-141.50;100.00;63355.56;5053060;28;20084;-79
2022/01/11 09:29:32;;;;;;;66.90;25.23;;;;;;;-141.50;100.00;63355.56;5053852;28;20052;-78
2022/01/11 09:32:00;;;;;;;72.18;26.67;;;;;;;-141.50;100.00;63355.56;5054946;28;20049;-79
2022/01/11 09:34:28;;;;;;;72.07;27.08;;;;;;;-141.50;100.00;63355.56;5058398;28;20110;-80
2022/01/11 09:36:54;;;;;;;68.25;26.15;;;;;;;-141.50;100.00;63355.56;5052738;28;20045;-77
2022/01/11 09:39:22;;;;;;;67.28;26.42;;;;;;;-141.50;100.00;63355.56;5051630;28;20103;-78
2022/01/11 09:41:48;;;;;;;69.55;26.40;;;;;;;-141.50;100.00;63355.56;5052534;28;20045;-78
2022/01/11 09:44:15;;;;;;;66.95;26.58;;;;;;;-141.50;100.00;63355.56;5053593;28;20066;-78
2022/01/11 09:46:42;;;;;;;72.68;27.30;;;;;;;-141.50;100.00;63355.56;5052278;28;20056;-79
2022/01/11 09:49:09;;;;;;;67.97;25.83;;;;;;;-141.50;100.00;63355.56;5052310;28;20242;-78
2022/01/11 09:51:36;;;;;;;73.18;26.83;;;;;;;-141.50;100.00;63355.56;5051601;28;20049;-78
2022/01/11 09:54:08;;;;;;;67.13;25.35;;;;;;;-141.50;100.00;63355.56;5052617;28;20052;-78
2022/01/11 09:56:36;;;;;;;65.43;25.35;;;;;;;-141.50;100.00;63355.56;5051800;28;20049;-78
2022/01/11 09:59:04;;;;;;;61.75;23.50;;;;;;;-141.50;100.00;63355.56;5053371;28;20052;-78
2022/01/11 10:01:32;;;;;;;58.13;23.50;;;;;;;-141.50;100.00;63355.56;5048455;28;20053;-78
2022/01/11 10:04:06;;;;;;;58.97;22.77;;;;;;;-141.50;100.00;63355.56;5059401;28;20037;-79
2022/01/11 10:06:35;;;;;;;59.28;22.42;;;;;;;-141.50;100.00;63355.56;5058988;28;20549;-79
2022/01/11 10:09:09;;;;;;;59.95;23.92;;;;;;;-141.50;100.00;63355.56;5059151;28;20052;-78
2022/01/11 10:11:38;;;;;;;52.60;22.15;;;;;;;-141.50;100.00;63355.56;5057735;28;20045;-79
2022/01/11 10:14:32;;;;;;;56.58;22.13;;;;;;;-141.50;100.00;63355.56;5061191;28;20374;-79
2022/01/11 10:17:08;;;;;;;59.15;22.80;;;;;;;-141.50;100.00;63355.56;5057299;28;20065;-79
2022/01/11 10:19:39;;;;;;;57.17;23.35;;;;;;;-141.50;100.00;63355.56;5060545;28;20049;-79
2022/01/11 10:22:19;;;;;;;61.85;23.95;;;;;;;-141.50;100.00;63355.56;5059257;28;20083;-79
2022/01/11 10:24:49;;;;;;;60.33;24.40;;;;;;;-141.50;100.00;63355.56;5058329;28;20072;-79
2022/01/11 10:27:20;;;;;;;54.22;21.60;;;;;;;-141.50;100.00;63355.56;5059328;28;20048;-79
2022/01/11 10:29:53;;;;;;;54.85;21.88;;;;;;;-141.50;100.00;63355.56;5055812;28;20159;-79
2022/01/11 10:32:25;;;;;;;51.13;21.58;;;;;;;-141.50;100.00;63355.56;5050929;28;20049;-79
2022/01/11 10:34:55;;;;;;;57.08;22.88;;;;;;;-141.50;100.00;63355.56;5051563;28;20523;-79
2022/01/11 10:37:40;;;;;;;58.53;23.02;;;;;;;-141.50;100.00;63355.56;5049735;28;20115;-78
2022/01/11 10:40:07;;;;;;;42.33;17.47;;;;;;;-141.50;100.00;63355.56;5051032;28;20052;-78
2022/01/11 10:42:38;;;;;;;54.00;21.52;;;;;;;-141.50;100.00;63355.56;5051001;28;20084;-78
2022/01/11 10:45:10;;;;;;;49.80;19.80;;;;;;;-141.50;100.00;63355.56;5050099;28;20057;-78
2022/01/11 10:47:49;;;;;;;53.50;20.13;;;;;;;-141.50;100.00;63355.56;5048428;28;20040;-78
2022/01/11 10:50:22;;;;;;;51.33;20.08;;;;;;;-141.50;100.00;63355.56;5051148;28;20045;-79
2022/01/11 10:52:49;;;;;;;48.17;20.35;;;;;;;-141.50;100.00;63355.56;5048428;28;20589;-78
2022/01/11 10:55:21;;;;;;;50.35;21.25;;;;;;;-141.50;100.00;63355.56;5049125;28;20151;-79
2022/01/11 10:57:56;;;;;;;50.70;21.00;;;;;;;-141.50;100.00;63355.56;5054421;28;20482;-78
2022/01/11 11:00:28;;;;;;;54.97;21.50;;;;;;;-141.50;100.00;63355.56;5055967;28;20499;-78